createdAt,value
2019-01-08T00:03:11.802Z,9.57
2019-01-08T00:09:00.682Z,6.60
2019-01-08T00:11:29.211Z,13.03
2019-01-08T00:14:11.141Z,13.63
2019-01-08T00:16:52.205Z,8.23
2019-01-08T00:19:25.375Z,15.27
2019-01-08T00:21:56.867Z,14.87
2019-01-08T00:24:28.477Z,10.87
2019-01-08T00:27:00.277Z,13.60
2019-01-08T00:29:30.302Z,16.03
2019-01-08T00:35:34.411Z,16.37
2019-01-08T00:38:10.280Z,12.97
2019-01-08T00:40:56.018Z,10.17
2019-01-08T00:43:31.663Z,15.97
2019-01-08T00:49:11.025Z,16.03
2019-01-08T00:51:41.373Z,13.67
2019-01-08T00:56:52.866Z,16.73
2019-01-08T00:59:33.053Z,18.33
2019-01-08T01:02:15.273Z,21.40
2019-01-08T01:04:45.720Z,17.63
2019-01-08T01:07:15.716Z,16.67
2019-01-08T01:09:49.178Z,22.63
2019-01-08T01:12:23.180Z,18.50
2019-01-08T01:14:53.861Z,18.00
2019-01-08T01:17:24.897Z,20.00
2019-01-08T01:19:55.877Z,18.13
2019-01-08T01:22:25.741Z,17.20
2019-01-08T01:24:55.621Z,18.27
2019-01-08T01:27:27.205Z,21.47
2019-01-08T01:29:57.972Z,20.93
2019-01-08T01:32:27.909Z,15.07
2019-01-08T01:34:57.921Z,14.77
2019-01-08T01:37:30.501Z,16.97
2019-01-08T01:40:00.490Z,18.30
2019-01-08T01:42:34.982Z,20.80
2019-01-08T01:45:05.308Z,20.93
2019-01-08T01:47:39.018Z,14.23
2019-01-08T01:50:13.128Z,18.67
2019-01-08T01:52:46.093Z,24.90
2019-01-08T01:55:19.961Z,17.50
2019-01-08T01:57:53.021Z,21.40
2019-01-08T02:00:27.006Z,17.77
2019-01-08T02:02:59.439Z,19.10
2019-01-08T02:05:31.644Z,21.67
2019-01-08T02:08:06.023Z,20.27
2019-01-08T02:10:41.715Z,20.77
2019-01-08T02:13:16.113Z,19.10
2019-01-08T02:15:48.079Z,16.30
2019-01-08T02:18:20.760Z,19.77
2019-01-08T02:20:53.748Z,20.07
2019-01-08T02:23:26.261Z,13.13
2019-01-08T02:25:59.982Z,25.43
2019-01-08T02:28:34.330Z,20.30
2019-01-08T02:31:07.144Z,27.87
2019-01-08T02:33:42.282Z,21.87
2019-01-08T02:36:18.394Z,17.03
2019-01-08T02:38:49.712Z,23.73
2019-01-08T02:41:21.401Z,18.77
2019-01-08T02:43:53.021Z,22.17
2019-01-08T02:46:24.630Z,17.83
2019-01-08T02:48:57.180Z,18.60
2019-01-08T02:51:31.543Z,20.67
2019-01-08T02:54:07.634Z,17.73
2019-01-08T02:56:37.520Z,19.70
2019-01-08T02:59:07.933Z,24.07
2019-01-08T03:01:37.953Z,18.93
2019-01-08T03:04:11.233Z,23.03
2019-01-08T03:06:43.252Z,18.47
2019-01-08T03:09:15.175Z,20.93
2019-01-08T03:11:47.364Z,18.00
2019-01-08T03:14:19.089Z,19.93
2019-01-08T03:16:52.029Z,18.50
2019-01-08T03:19:22.014Z,19.37
2019-01-08T03:21:54.372Z,21.13
2019-01-08T03:24:25.459Z,21.33
2019-01-08T03:26:55.538Z,21.23
2019-01-08T03:29:33.547Z,21.87
2019-01-08T03:32:00.055Z,20.50
2019-01-08T03:34:32.034Z,21.60
2019-01-08T03:37:02.810Z,21.30
2019-01-08T03:39:36.445Z,21.97
2019-01-08T03:42:08.375Z,19.60
2019-01-08T03:44:38.432Z,23.77
2019-01-08T03:47:10.827Z,22.03
2019-01-08T03:49:42.153Z,20.90
2019-01-08T03:52:12.941Z,14.97
2019-01-08T03:54:43.117Z,26.50
2019-01-08T03:57:17.133Z,24.53
2019-01-08T03:59:52.182Z,17.63
2019-01-08T04:02:21.929Z,20.33
2019-01-08T04:04:53.446Z,22.47
2019-01-08T04:07:23.523Z,18.20
2019-01-08T04:09:55.496Z,26.13
2019-01-08T04:12:25.411Z,21.43
2019-01-08T04:14:55.295Z,17.20
2019-01-08T04:17:25.338Z,17.30
2019-01-08T04:19:58.257Z,16.37
2019-01-08T04:22:29.806Z,23.93
2019-01-08T04:24:59.629Z,20.83
2019-01-08T04:27:29.548Z,19.63
2019-01-08T04:29:59.417Z,17.43
2019-01-08T04:32:31.166Z,18.47
2019-01-08T04:35:01.147Z,18.43
2019-01-08T04:37:30.987Z,18.60
2019-01-08T04:40:01.324Z,19.20
2019-01-08T04:42:31.755Z,24.07
2019-01-08T04:45:01.681Z,15.70
2019-01-08T04:47:34.984Z,20.60
2019-01-08T04:50:07.340Z,17.17
2019-01-08T04:52:39.301Z,21.27
2019-01-08T04:55:09.452Z,17.80
2019-01-08T04:57:39.607Z,15.27
2019-01-08T05:00:10.623Z,23.50
2019-01-08T05:02:42.254Z,12.17
2019-01-08T05:05:15.947Z,15.77
2019-01-08T05:07:45.950Z,18.83
2019-01-08T05:10:17.703Z,18.00
2019-01-08T05:12:48.117Z,17.40
2019-01-08T05:15:19.718Z,16.30
2019-01-08T05:17:49.784Z,16.70
2019-01-08T05:20:19.812Z,24.33
2019-01-08T05:22:49.721Z,16.83
2019-01-08T05:25:19.778Z,12.13
2019-01-08T05:27:49.934Z,15.17
2019-01-08T05:30:20.086Z,15.50
2019-01-08T05:32:50.296Z,21.37
2019-01-08T05:35:20.164Z,15.00
2019-01-08T05:37:50.005Z,15.77
2019-01-08T05:40:20.099Z,12.93
2019-01-08T05:42:50.265Z,18.20
2019-01-08T05:45:20.253Z,15.57
2019-01-08T05:47:52.873Z,11.03
2019-01-08T05:50:23.110Z,15.27
2019-01-08T05:52:53.063Z,15.07
2019-01-08T05:55:23.492Z,12.97
2019-01-08T05:57:54.983Z,12.40
2019-01-08T06:00:25.970Z,15.27
2019-01-08T06:02:56.120Z,12.70
2019-01-08T06:05:27.901Z,14.63
2019-01-08T06:07:57.801Z,16.20
2019-01-08T06:10:27.927Z,17.53
2019-01-08T06:12:58.303Z,11.07
2019-01-08T06:15:28.574Z,11.50
2019-01-08T06:17:58.510Z,17.17
2019-01-08T06:20:28.678Z,12.87
2019-01-08T06:22:58.971Z,13.37
2019-01-08T06:25:29.028Z,14.20
2019-01-08T06:28:00.599Z,11.30
2019-01-08T06:30:30.363Z,21.27
2019-01-08T06:33:01.510Z,11.50
2019-01-08T06:35:31.542Z,17.20
2019-01-08T06:38:01.534Z,16.53
2019-01-08T06:40:31.486Z,18.77
2019-01-08T06:43:02.011Z,14.93
2019-01-08T06:45:32.052Z,18.30
2019-01-08T06:48:02.328Z,16.37
2019-01-08T06:50:32.175Z,16.73
2019-01-08T06:53:02.180Z,15.30
2019-01-08T06:55:34.953Z,21.33
2019-01-08T06:58:04.993Z,17.13
2019-01-08T07:00:35.045Z,17.33
2019-01-08T07:03:04.986Z,12.50
2019-01-08T07:05:34.891Z,17.33
2019-01-08T07:08:04.795Z,12.53
2019-01-08T07:10:36.889Z,12.73
2019-01-08T07:13:06.934Z,13.13
2019-01-08T07:15:36.952Z,21.77
2019-01-08T07:18:07.050Z,16.30
2019-01-08T07:20:37.003Z,16.60
2019-01-08T07:23:06.896Z,15.00
2019-01-08T07:25:42.062Z,20.00
2019-01-08T07:28:08.373Z,16.47
2019-01-08T07:30:41.654Z,16.07
2019-01-08T07:33:09.840Z,16.47
2019-01-08T07:35:39.899Z,22.43
2019-01-08T07:38:10.499Z,17.93
2019-01-08T07:40:41.485Z,20.63
2019-01-08T07:43:11.416Z,14.43
2019-01-08T07:45:41.492Z,15.17
2019-01-08T07:48:11.386Z,17.17
2019-01-08T07:50:41.528Z,20.80
2019-01-08T07:53:12.466Z,15.87
2019-01-08T07:55:42.513Z,19.27
2019-01-08T07:58:12.290Z,18.37
2019-01-08T08:00:49.780Z,22.20
2019-01-08T08:03:13.627Z,15.40
2019-01-08T08:05:43.564Z,23.73
2019-01-08T08:08:13.871Z,14.90
2019-01-08T08:10:43.660Z,20.57
2019-01-08T08:13:14.853Z,23.23
2019-01-08T08:15:45.010Z,20.17
2019-01-08T08:18:14.943Z,23.57
2019-01-08T08:20:45.111Z,29.20
2019-01-08T08:23:14.871Z,20.77
2019-01-08T08:25:44.784Z,21.80
2019-01-08T08:28:15.094Z,23.50
2019-01-08T08:30:48.447Z,19.57
2019-01-08T08:33:18.365Z,19.23
2019-01-08T08:35:48.317Z,20.83
2019-01-08T08:38:19.405Z,22.90
2019-01-08T08:40:49.398Z,16.53
2019-01-08T08:43:19.424Z,15.23
2019-01-08T08:45:49.558Z,17.47
2019-01-08T08:48:22.492Z,15.77
2019-01-08T08:50:52.454Z,13.77
2019-01-08T08:53:22.270Z,11.10
2019-01-08T08:55:52.089Z,19.80
2019-01-08T08:58:22.469Z,14.60
2019-01-08T09:00:53.782Z,15.33
2019-01-08T09:03:24.985Z,22.67
2019-01-08T09:05:54.877Z,14.30
2019-01-08T09:08:24.650Z,20.87
2019-01-08T09:10:57.585Z,14.80
2019-01-08T09:13:27.461Z,22.27
2019-01-08T09:15:58.575Z,14.57
2019-01-08T09:18:30.534Z,14.50
2019-01-08T09:21:01.078Z,14.37
2019-01-08T09:23:34.014Z,13.37
2019-01-08T09:26:03.914Z,12.73
2019-01-08T09:28:36.821Z,14.27
2019-01-08T09:31:15.357Z,12.93
2019-01-08T09:33:39.991Z,9.23
2019-01-08T09:36:10.055Z,10.80
2019-01-08T09:38:40.183Z,11.77
2019-01-08T09:41:09.910Z,18.00
2019-01-08T09:43:39.776Z,17.77
2019-01-08T09:46:10.005Z,19.07
2019-01-08T09:48:45.843Z,17.50
2019-01-08T10:09:01.976Z,26.23
2019-01-08T10:11:31.899Z,20.47
2019-01-08T10:14:28.332Z,18.23
2019-01-08T10:16:59.856Z,23.67
2019-01-08T10:19:29.695Z,20.57
2019-01-08T10:22:01.463Z,25.13
2019-01-08T10:24:31.534Z,19.93
2019-01-08T10:27:01.537Z,21.83
2019-01-08T10:29:31.944Z,24.83
2019-01-08T10:32:01.929Z,22.20
2019-01-08T10:34:53.546Z,20.27
2019-01-08T10:37:16.862Z,27.03
2019-01-08T10:39:50.831Z,22.40
2019-01-08T10:42:20.672Z,23.40
2019-01-08T10:44:50.653Z,18.90
2019-01-08T10:47:22.051Z,19.57
2019-01-08T10:49:52.213Z,21.50
2019-01-08T10:52:21.998Z,27.20
2019-01-08T10:54:52.009Z,17.23
2019-01-08T10:57:22.115Z,11.63
2019-01-08T10:59:52.310Z,12.07
2019-01-08T11:02:22.379Z,19.23
2019-01-08T11:04:52.275Z,12.37
2019-01-08T11:07:22.350Z,13.60
2019-01-08T11:09:52.168Z,21.63
2019-01-08T11:12:22.106Z,21.67
2019-01-08T11:14:52.034Z,14.57
2019-01-08T11:17:21.879Z,16.93
2019-01-08T11:19:51.613Z,14.93
2019-01-08T11:22:21.416Z,17.43
2019-01-08T11:24:52.352Z,16.37
2019-01-08T11:27:22.179Z,17.10
2019-01-08T11:29:52.069Z,20.93
2019-01-08T11:32:21.822Z,18.80
2019-01-08T11:34:51.903Z,16.93
2019-01-08T11:37:22.073Z,18.17
2019-01-08T11:39:52.153Z,15.87
2019-01-08T11:42:22.013Z,21.43
2019-01-08T11:44:52.521Z,23.40
2019-01-08T11:58:15.098Z,29.03
2019-01-08T12:00:50.255Z,38.47
2019-01-08T12:03:23.160Z,41.23
2019-01-08T12:05:57.424Z,28.63
2019-01-08T12:08:29.765Z,31.03
2019-01-08T12:11:01.097Z,25.60
2019-01-08T12:13:31.502Z,24.87
2019-01-08T12:16:01.420Z,29.37
2019-01-08T12:18:31.262Z,27.50
2019-01-08T12:21:06.047Z,32.13
2019-01-08T12:23:36.171Z,30.80
2019-01-08T14:15:43.702Z,31.43
2019-01-08T14:18:21.323Z,28.40
2019-01-08T14:20:51.869Z,24.43
2019-01-08T14:23:23.337Z,23.50
2019-01-08T14:25:53.805Z,27.23
2019-01-08T14:28:24.216Z,19.00
2019-01-08T14:30:54.442Z,15.43
2019-01-08T14:33:26.487Z,18.90
2019-01-08T14:35:56.799Z,13.30
2019-01-08T14:38:26.802Z,11.27
2019-01-08T14:41:12.223Z,10.80
2019-01-08T14:43:39.175Z,13.27
2019-01-08T14:46:34.803Z,14.57
2019-01-08T14:49:06.039Z,13.53
2019-01-08T14:51:37.878Z,17.73
2019-01-08T14:54:09.435Z,17.80
2019-01-08T14:56:41.006Z,20.13
2019-01-08T14:59:11.122Z,16.63
2019-01-08T15:01:41.991Z,17.37
2019-01-08T15:04:12.148Z,22.30
2019-01-08T15:06:42.664Z,15.13
2019-01-08T15:17:22.880Z,16.77
2019-01-08T15:19:54.113Z,20.30
2019-01-08T15:22:24.229Z,15.60
2019-01-08T15:24:54.250Z,18.33
2019-01-08T15:27:24.454Z,16.50
2019-01-08T15:29:55.040Z,20.33
2019-01-08T15:32:27.421Z,19.93
2019-01-08T15:34:58.027Z,22.57
2019-01-08T15:37:30.609Z,16.20
2019-01-08T15:40:03.059Z,13.10
2019-01-08T15:42:47.598Z,13.50
2019-01-08T15:45:18.579Z,18.87
2019-01-08T15:47:50.094Z,20.30
2019-01-08T15:50:21.582Z,17.37
2019-01-08T15:53:07.494Z,19.77
2019-01-08T15:55:39.152Z,23.97
2019-01-08T15:58:10.750Z,22.73
2019-01-08T16:00:42.075Z,24.33
2019-01-08T16:03:14.114Z,22.57
2019-01-08T16:05:45.121Z,18.27
2019-01-08T16:08:16.908Z,24.80
2019-01-08T16:10:52.110Z,28.77
2019-01-08T16:13:24.925Z,24.80
2019-01-08T16:15:55.452Z,22.00
2019-01-08T16:18:30.149Z,25.47
2019-01-08T16:21:10.549Z,30.87
2019-01-08T16:23:46.202Z,20.03
2019-01-08T16:26:18.260Z,24.47
2019-01-08T16:28:57.181Z,21.93
2019-01-08T16:31:32.822Z,17.83
2019-01-08T16:34:06.485Z,26.77
2019-01-08T16:36:39.206Z,30.17
2019-01-08T16:39:11.719Z,24.07
2019-01-08T16:41:45.524Z,28.83
2019-01-08T16:44:16.897Z,27.10
2019-01-08T16:46:48.055Z,28.47
2019-01-08T16:49:22.416Z,31.40
2019-01-08T16:51:53.898Z,26.13
2019-01-08T16:54:25.552Z,25.80
2019-01-08T16:56:56.949Z,36.20
2019-01-08T16:59:27.976Z,32.17
2019-01-08T17:01:59.835Z,19.93
2019-01-08T17:04:32.950Z,8.80
2019-01-08T17:07:05.082Z,12.70
2019-01-08T17:09:38.573Z,14.07
2019-01-08T17:12:18.161Z,14.07
2019-01-08T17:14:57.589Z,15.77
2019-01-08T17:17:29.932Z,20.90
2019-01-08T17:20:01.323Z,22.60
2019-01-08T17:22:31.180Z,20.40
2019-01-08T17:25:03.188Z,16.60
2019-01-08T17:27:37.762Z,20.37
2019-01-08T17:30:10.428Z,17.03
2019-01-08T17:32:40.967Z,14.60
2019-01-08T17:35:16.140Z,17.20
2019-01-08T17:37:46.893Z,17.60
2019-01-08T17:40:18.197Z,11.70
2019-01-08T17:42:50.477Z,15.17
2019-01-08T17:45:21.993Z,10.87
2019-01-08T17:47:53.725Z,13.77
2019-01-08T17:50:26.599Z,10.37
2019-01-08T17:52:58.024Z,12.50
2019-01-08T17:55:29.295Z,16.37
2019-01-08T17:58:35.670Z,16.70
2019-01-08T18:01:12.898Z,19.10
2019-01-08T18:03:45.517Z,20.83
2019-01-08T18:06:16.432Z,21.03
2019-01-08T18:08:46.446Z,24.37
2019-01-08T18:11:18.364Z,21.87
2019-01-08T18:13:49.713Z,15.40
2019-01-08T18:16:20.996Z,17.23
2019-01-08T18:18:53.806Z,20.17
2019-01-08T18:21:24.887Z,22.63
2019-01-08T18:23:58.776Z,27.10
2019-01-08T18:26:30.401Z,23.83
2019-01-08T18:29:01.706Z,24.57
2019-01-08T18:31:34.453Z,19.73
2019-01-08T18:34:07.854Z,24.57
2019-01-08T18:36:40.398Z,16.47
2019-01-08T18:39:11.847Z,15.07
2019-01-08T18:41:43.935Z,17.23
2019-01-08T18:44:16.268Z,12.80
2019-01-08T18:46:48.847Z,17.97
2019-01-08T18:49:20.463Z,24.77
2019-01-08T18:51:51.745Z,22.03
2019-01-08T18:54:23.058Z,20.87
2019-01-08T18:56:56.780Z,24.43
2019-01-08T18:59:29.463Z,28.80
2019-01-08T19:02:01.325Z,28.63
2019-01-08T19:04:42.873Z,32.97
2019-01-08T19:07:13.577Z,32.53
2019-01-08T19:12:27.352Z,28.67
2019-01-08T19:15:07.906Z,32.50
2019-01-08T19:17:43.611Z,23.30
2019-01-08T19:20:13.324Z,34.77
2019-01-08T19:22:45.827Z,35.97
2019-01-08T19:25:17.668Z,29.67
2019-01-08T19:27:49.893Z,26.97
2019-01-08T19:30:23.472Z,22.97
2019-01-08T19:32:58.613Z,31.63
2019-01-08T19:35:31.727Z,23.37
2019-01-08T19:38:08.945Z,28.07
2019-01-08T19:40:56.670Z,26.87
2019-01-08T19:43:32.909Z,26.83
2019-01-08T19:46:19.923Z,24.57
2019-01-08T19:48:52.041Z,24.30
2019-01-08T19:51:25.068Z,23.13
2019-01-08T19:53:57.022Z,26.60
2019-01-08T19:56:27.014Z,36.03
2019-01-08T19:58:58.514Z,23.93
2019-01-08T20:01:28.279Z,30.30
2019-01-08T20:04:17.810Z,33.23
2019-01-08T20:06:40.883Z,24.17
2019-01-08T20:09:11.256Z,19.40
2019-01-08T20:11:41.045Z,20.70
2019-01-08T20:14:11.404Z,19.97
2019-01-08T20:16:49.653Z,23.27
2019-01-08T20:19:39.320Z,18.90
2019-01-08T20:22:07.398Z,14.90
2019-01-08T20:24:39.063Z,18.17
2019-01-08T20:27:34.039Z,9.90
2019-01-08T20:29:56.034Z,11.97
2019-01-08T20:32:26.242Z,8.83
2019-01-08T20:35:24.074Z,7.60
2019-01-08T20:37:55.740Z,8.07
2019-01-08T20:40:25.682Z,8.10
2019-01-08T20:43:36.393Z,10.23
2019-01-08T20:52:18.452Z,12.70
2019-01-08T20:55:01.358Z,11.07
2019-01-08T20:57:31.323Z,14.03
2019-01-08T21:00:01.095Z,13.10
2019-01-08T21:02:36.341Z,13.30
2019-01-08T21:05:27.328Z,10.57
2019-01-08T21:08:18.132Z,13.23
2019-01-08T21:11:09.305Z,13.13
2019-01-08T21:13:39.259Z,16.63
2019-01-08T21:16:09.247Z,11.13
2019-01-08T21:21:21.775Z,13.83
2019-01-08T21:23:51.900Z,15.40
2019-01-08T21:26:21.804Z,12.23
2019-01-08T21:28:51.947Z,10.43
2019-01-08T21:34:44.352Z,15.70
2019-01-08T21:37:23.886Z,11.43
2019-01-08T21:40:20.009Z,9.53
2019-01-08T21:55:10.699Z,7.43
2019-01-08T22:09:59.213Z,12.67
2019-01-08T22:12:46.043Z,9.27
2019-01-08T22:15:24.009Z,10.00
2019-01-08T22:28:26.400Z,8.00
2019-01-08T22:31:01.811Z,9.17
2019-01-08T22:33:31.564Z,12.23
2019-01-08T22:36:03.205Z,11.03
2019-01-08T22:51:13.930Z,8.77
2019-01-08T22:53:55.359Z,12.10
2019-01-08T22:56:33.976Z,14.47
2019-01-08T22:59:07.582Z,8.57
2019-01-08T23:04:23.007Z,12.77
2019-01-08T23:07:00.303Z,14.93
2019-01-08T23:09:35.288Z,13.87
2019-01-08T23:12:12.015Z,11.53
2019-01-08T23:15:06.785Z,15.60
2019-01-08T23:17:45.632Z,13.33
2019-01-08T23:20:24.959Z,14.83
2019-01-08T23:22:54.063Z,12.13
2019-01-08T23:25:37.559Z,7.27
2019-01-08T23:28:14.688Z,11.67
2019-01-08T23:30:50.171Z,13.70
2019-01-08T23:33:33.520Z,8.33
2019-01-08T23:36:09.743Z,12.97
2019-01-08T23:38:50.100Z,9.93
2019-01-08T23:41:21.526Z,8.27
2019-01-08T23:44:09.467Z,9.30
2019-01-08T23:46:38.043Z,13.57
2019-01-08T23:49:23.753Z,16.57
2019-01-08T23:52:00.903Z,10.73
2019-01-08T23:54:34.551Z,8.80
2019-01-08T23:57:16.763Z,10.10
